• Join FlightAware (Why Join?)
  • Login
  • US Flag 
07:58PM EST


 

Airport Tracker/Info


-or-


 

Live Flight TrackerFlight Track Log ✈ JBU729 ✈ 12-Apr-2013 ✈ KMCO - TJBQ / BQN

Flight Track Log - Related Links

Times and Time Zones

All times are in EDT time to prevent confusion due to time zone crossing. See the JBU729 flight status page for this flight to view local times or setup timezone preferences in your user account.

Time Position Orientation Groundspeed Altitude Reporting Facility
EDT Latitude Longitude Course Direction KTS MPH feet Rate Location/Type
11:44PM 28.2073 -80.9410 148° Southeast  Level Estimated
11:45PM 28.1330 -80.8187 146° Southeast  Level Estimated
11:46PM 28.0587 -80.6966 149° Southeast  Level Estimated
11:46PM 28.1900 -81.0600 148° Southeast 348 400 11,900  Level FlightAware
11:47PM 27.9842 -80.5746 148° Southeast  Level Estimated
11:47PM 28.1460 -80.9870 124° Southeast 363 418 14,000  Level FlightAware
11:47PM 28.1080 -80.9240 124° Southeast 363 418 15,900 2,700 Climbing FlightAware
11:48PM 28.0730 -80.8640 123° Southeast 366 421 17,600 2,280 Climbing FlightAware
11:49PM 28.0280 -80.7890 124° Southeast 383 441 19,200 1,500 Climbing FlightAware
11:49PM 27.9910 -80.7260 124° Southeast 384 442 19,800 420 Climbing FlightAware
11:50PM 27.9580 -80.6680 123° Southeast 384 442 19,800  Level FlightAware
11:51PM 27.9250 -80.6110 123° Southeast 384 442 19,800  Level FlightAware
11:51PM 27.8920 -80.5540 123° Southeast 384 442 19,800  Level FlightAware
11:52PM 27.8590 -80.4960 123° Southeast 384 442 19,800  Level FlightAware
11:53PM 27.8180 -80.4250 123° Southeast 384 442 19,800 3,180 Level FlightAware
11:55PM 27.6160 -80.1090 126° Southeast 461 531 29,200 3,300 Climbing FlightAware
11:56PM 27.5680 -80.0290 124° Southeast 461 531 29,200  Level FlightAware
11:56PM 27.5280 -79.9620 124° Southeast 461 531 29,200 1,800 Level FlightAware
11:57PM 27.4350 -79.8620 136° Southeast 474 545 31,600 2,460 Climbing FlightAware
11:58PM 27.3650 -79.7830 135° Southeast 473 544 32,700 1,380 Climbing FlightAware
11:59PM 27.3080 -79.7180 135° Southeast 469 540 33,600 1,380 Climbing FlightAware
11:59PM 27.2450 -79.6450 134° Southeast 465 535 34,600 1,440 Climbing FlightAware
12:00AM 27.1870 -79.5540 126° Southeast 468 539 35,700 1,140 Climbing FlightAware
12:01AM 27.1200 -79.4450 125° Southeast 471 542 36,500 600 Climbing FlightAware
12:02AM 27.0580 -79.3420 124° Southeast 471 542 36,800 900 Climbing FlightAware
12:03AM 26.9960 -79.2430 125° Southeast 469 540 38,000 1,080 Climbing FlightAware
12:03AM 26.9460 -79.1630 125° Southeast 473 544 38,400 480 Climbing FlightAware
12:04AM 26.9020 -79.0910 124° Southeast 477 549 38,700 420 Climbing FlightAware
12:05AM 26.8490 -79.0050 125° Southeast 479 551 39,000 180 Climbing FlightAware
12:05AM 26.7970 -78.9210 125° Southeast 475 547 39,000  Level FlightAware
12:06AM 26.7390 -78.8290 125° Southeast 480 552 39,000  Level FlightAware
12:07AM 26.6890 -78.7480 125° Southeast 480 552 39,000  Level FlightAware
12:07AM 26.6360 -78.6630 125° Southeast 482 555 39,000  Level FlightAware
12:08AM 26.5800 -78.5740 125° Southeast 484 557 39,000  Level FlightAware
12:09AM 26.5110 -78.4610 124° Southeast 484 557 39,000  Level FlightAware
12:10AM 26.4620 -78.3860 126° Southeast 484 557 39,000  Level FlightAware
12:10AM 26.3970 -78.2830 125° Southeast 481 554 39,000  Level FlightAware
12:11AM 26.3360 -78.1870 125° Southeast 481 554 39,000  Level FlightAware
12:12AM 26.2840 -78.1050 125° Southeast 481 554 39,000  Level FlightAware
12:13AM 26.2280 -78.0150 125° Southeast 481 554 39,000  Level FlightAware
12:13AM 26.1790 -77.9390 126° Southeast 482 555 39,000  Level FlightAware
12:14AM 26.1350 -77.8690 125° Southeast 482 555 39,000  Level FlightAware
12:15AM 26.0710 -77.7690 125° Southeast 479 551 39,000  Level FlightAware
12:16AM 26.0080 -77.6670 124° Southeast 481 554 39,000  Level FlightAware
12:16AM 25.9650 -77.5970 124° Southeast 481 554 39,000  Level FlightAware
12:17AM 25.9120 -77.5100 124° Southeast 481 554 39,000  Level FlightAware
12:18AM 25.8810 -77.4580 124° Southeast 481 554 39,000  Level FlightAware
12:18AM 25.8280 -77.3710 124° Southeast 481 554 39,000  Level FlightAware
12:19AM 25.7860 -77.3010 124° Southeast 481 554 39,000  Level FlightAware
12:20AM 25.7430 -77.2310 124° Southeast 481 554 39,000  Level FlightAware
12:21AM 25.6900 -77.1440 124° Southeast 481 554 39,000  Level FlightAware
12:21AM 25.6480 -77.0750 124° Southeast 481 554 39,000  Level FlightAware
12:22AM 25.6060 -77.0050 124° Southeast 481 554 39,000  Level FlightAware
12:23AM 25.5630 -76.9360 125° Southeast 481 554 39,000  Level FlightAware
12:23AM 25.5210 -76.8660 124° Southeast 481 554 39,000  Level FlightAware
12:24AM 25.4790 -76.7970 124° Southeast 481 554 39,000  Level FlightAware
12:25AM 25.4260 -76.7100 124° Southeast 481 554 39,000  Level FlightAware
12:26AM 25.1872 -76.4017 124° Southeast 491 565 39,000  Level Miami Center
12:27AM 25.1072 -76.2806 126° Southeast 491 565 39,000  Level Miami Center
12:28AM 25.0272 -76.1617 127° Southeast 491 565 39,000  Level Miami Center
12:29AM 24.9514 -76.0406 125° Southeast 491 565 39,000  Level Miami Center
12:30AM 24.8692 -75.9197 127° Southeast 491 565 39,000  Level Miami Center
12:31AM 24.7869 -75.8011 127° Southeast 486 559 39,000  Level Miami Center
12:32AM 24.7067 -75.6783 126° Southeast 486 559 39,000  Level Miami Center
12:33AM 24.6283 -75.5581 126° Southeast 486 559 39,000  Level Miami Center
12:34AM 24.5456 -75.4333 126° Southeast 491 565 39,000  Level Miami Center
12:35AM 24.4628 -75.3131 127° Southeast 497 572 39,000  Level Miami Center
12:36AM 24.3842 -75.1956 126° Southeast 497 572 39,000  Level Miami Center
12:37AM 24.3033 -75.0736 126° Southeast 497 572 39,000  Level Miami Center
12:38AM 24.2206 -74.9517 127° Southeast 497 572 39,000  Level Miami Center
12:39AM 24.1394 -74.8344 127° Southeast 497 572 39,000  Level Miami Center
12:40AM 24.0583 -74.7131 126° Southeast 497 572 39,000  Level Miami Center
12:41AM 23.9772 -74.5939 127° Southeast 497 572 39,000  Level Miami Center
12:42AM 23.8917 -74.4750 128° Southeast 497 572 39,000  Level Miami Center
12:43AM 23.8125 -74.3561 126° Southeast 497 572 39,000  Level Miami Center
12:44AM 23.7308 -74.2328 126° Southeast 497 572 39,000  Level Miami Center
12:45AM 23.6475 -74.1167 128° Southeast 497 572 39,000  Level Miami Center
12:46AM 23.5617 -73.9961 128° Southeast 497 572 39,000  Level Miami Center
12:47AM 23.4756 -73.8736 127° Southeast 497 572 39,000  Level Miami Center
12:48AM 23.3981 -73.7553 125° Southeast 503 579 39,000  Level Miami Center
12:49AM 23.3206 -73.6486 128° Southeast 496 571 39,000  Level Miami Center
12:50AM 23.2386 -73.5286 127° Southeast 496 571 39,000  Level Miami Center
12:51AM 23.1586 -73.4089 126° Southeast 496 571 39,000  Level Miami Center
12:52AM 23.0658 -73.2872 130° Southeast 501 577 39,000  Level Miami Center
12:53AM 22.9878 -73.1675 125° Southeast 501 577 39,000  Level Miami Center
12:54AM 22.8969 -73.0417 128° Southeast 484 557 39,000  Level Miami Center
12:55AM 22.8164 -72.9178 125° Southeast 490 564 39,000  Level Miami Center
12:56AM 22.7319 -72.8033 129° Southeast 496 571 39,000  Level Miami Center
12:57AM 22.6453 -72.6825 128° Southeast 501 577 39,000  Level Miami Center
12:58AM 22.5625 -72.5636 127° Southeast 501 577 39,000  Level Miami Center
12:59AM 22.4778 -72.4428 127° Southeast 501 577 39,000  Level Miami Center
01:00AM 22.3908 -72.3269 129° Southeast 501 577 39,000  Level Miami Center
01:01AM 22.3186 -72.2194 126° Southeast 495 570 39,000  Level Miami Center
01:02AM 22.2336 -72.1014 128° Southeast 495 570 39,000  Level Miami Center
01:03AM 22.1483 -71.9836 128° Southeast 495 570 39,000  Level Miami Center
01:04AM 22.0653 -71.8656 127° Southeast 500 575 39,000  Level Miami Center
01:05AM 21.9800 -71.7481 128° Southeast 500 575 39,000  Level Miami Center
01:06AM 21.8944 -71.6283 128° Southeast 500 575 39,000  Level Miami Center
01:07AM 21.8092 -71.5111 128° Southeast 500 575 39,000  Level Miami Center
01:08AM 21.7236 -71.3961 129° Southeast 495 570 39,000  Level Miami Center
01:09AM 21.6400 -71.2769 127° Southeast 495 570 39,000  Level Miami Center
01:10AM 21.5564 -71.1578 127° Southeast 500 575 39,000  Level Miami Center
01:11AM 21.4725 -71.0322 126° Southeast 506 582 39,000  Level Miami Center
01:12AM 21.3675 -70.9031 131° Southeast 516 594 39,000  Level Miami Center
01:13AM 21.2817 -70.7889 129° Southeast 510 587 39,000  Level Miami Center
01:14AM 21.1956 -70.6728 128° Southeast 505 581 39,000  Level Miami Center
01:15AM 21.1097 -70.5611 129° Southeast 505 581 39,000  Level Miami Center
01:16AM 21.0236 -70.4431 128° Southeast 498 573 39,000  Level Miami Center
01:17AM 20.9397 -70.3272 128° Southeast 498 573 39,000  Level Miami Center
01:18AM 20.8514 -70.2117 129° Southeast 498 573 39,000  Level Miami Center
01:19AM 20.7628 -70.0942 129° Southeast 498 573 39,000  Level Miami Center
01:20AM 20.6786 -69.9767 127° Southeast 498 573 39,000  Level Miami Center
01:21AM 20.5900 -69.8594 129° Southeast 503 579 39,000  Level Miami Center
01:22AM 20.5014 -69.7444 129° Southeast 503 579 39,000  Level Miami Center
01:23AM 20.4128 -69.6275 129° Southeast 503 579 39,000  Level Miami Center
01:24AM 20.3261 -69.5131 129° Southeast 503 579 39,000  Level Miami Center
01:25AM 20.2372 -69.3964 129° Southeast 503 579 39,000  Level Miami Center
01:26AM 20.1483 -69.2819 130° Southeast 503 579 39,000  Level Miami Center
01:27AM 20.0614 -69.1633 128° Southeast 503 579 39,000  Level Miami Center
01:28AM 19.9744 -69.0472 129° Southeast 503 579 39,000  Level Miami Center
01:29AM 19.8833 -68.9314 130° Southeast 503 579 39,000 -60 Level Miami Center
01:30AM 19.7964 -68.8153 129° Southeast 503 579 38,900 -1,080 Descending Miami Center
01:31AM 19.7072 -68.7019 130° Southeast 503 579 36,900 -2,400 Descending Miami Center
01:32AM 19.6219 -68.5817 127° Southeast 503 579 34,200 -2,700 Descending Miami Center
01:33AM 19.5333 -68.4667 129° Southeast 520 598 31,900 -2,640 Descending San Juan Center
01:34AM 19.4500 -68.3500 127° Southeast 510 587 29,100 -2,700 Descending San Juan Center
01:35AM 19.3667 -68.2333 127° Southeast 490 564 26,500 -2,580 Descending San Juan Center
01:36AM 19.2833 -68.1333 131° Southeast 480 552 24,000 -2,340 Descending San Juan Center
01:37AM 19.2000 -68.0333 131° Southeast 450 518 21,900 -2,700 Descending San Juan Center
01:38AM 19.1000 -67.9500 142° Southeast 450 518 18,600 -3,000 Descending San Juan Center
01:39AM 19.0000 -67.8500 137° Southeast 440 506 16,000 -2,880 Descending San Juan Center
01:40AM 18.9167 -67.7667 137° Southeast 430 495 12,800 -2,700 Descending San Juan Center
01:41AM 18.8333 -67.7000 143° Southeast 400 460 10,600 -1,320 Descending San Juan Center
01:42AM 18.7667 -67.6167 130° Southeast 340 391 10,200 -780 Descending San Juan Center
01:43AM 18.7000 -67.5667 145° Southeast 290 334 9,100 -1,260 Descending San Juan Center
01:44AM 18.6500 -67.5167 137° Southeast 270 311 7,700 -1,440 Descending San Juan Center
01:45AM 18.5833 -67.4667 145° Southeast 260 299 6,300 -1,140 Descending San Juan Center
01:47AM 18.5000 -67.3667 131° Southeast 220 253 4,300 -900 Descending San Juan Center
01:48AM 18.4500 -67.3333 148° Southeast 170 196 3,600 -660 Descending San Juan Center
01:49AM 18.4333 -67.3000 118° Southeast 160 184 3,000 -600 Descending San Juan Center
01:50AM 18.4333 -67.2500 90° East 160 184 2,500 -600 Descending San Juan Center
01:51AM 18.4500 -67.2167 62° Northeast 120 138 1,800 -720 Descending San Juan Center
01:52AM 18.4667 -67.1833 62° Northeast 120 138 1,100 -720 Descending San Juan Center